Time;durP1;ratioP1;P1;durP2;ratioP2;P2;SDS_P1;SDS_P2;PMS_P1;PMS_P2;Temp;Humidity;BMP_temperature;BMP_pressure;BME280_temperature;BME280_humidity;BME280_pressure;Samples;Min_cycle;Max_cycle;Signal;HPM_P1;HPM_P2
2021/06/01 00:00:04;;;;;;;2.53;2.33;;;12.20;57.00;;;;;;5058970;28;20035;-72
2021/06/01 00:02:30;;;;;;;3.17;2.88;;;12.20;57.20;;;;;;5056161;28;20040;-73
2021/06/01 00:04:55;;;;;;;3.50;2.78;;;12.20;57.20;;;;;;5058715;28;20025;-72
2021/06/01 00:07:21;;;;;;;5.82;3.10;;;12.20;57.20;;;;;;5059541;28;20394;-72
2021/06/01 00:09:46;;;;;;;4.13;2.53;;;12.20;57.20;;;;;;5059579;28;20579;-73
2021/06/01 00:12:12;;;;;;;4.70;3.03;;;12.10;57.10;;;;;;5057154;28;20066;-73
2021/06/01 00:14:38;;;;;;;4.57;3.28;;;12.10;57.20;;;;;;5056794;28;20321;-73
2021/06/01 00:17:03;;;;;;;3.28;2.97;;;12.00;57.40;;;;;;5058949;28;20036;-70
2021/06/01 00:19:29;;;;;;;3.95;3.08;;;12.00;57.40;;;;;;5057465;28;20573;-73
2021/06/01 00:21:55;;;;;;;6.38;3.35;;;12.00;57.50;;;;;;5056842;28;20031;-73
2021/06/01 00:24:20;;;;;;;3.30;3.00;;;11.90;57.50;;;;;;5057480;28;20036;-73
2021/06/01 00:26:46;;;;;;;5.35;3.20;;;11.90;57.60;;;;;;5057556;28;20039;-72
2021/06/01 00:29:11;;;;;;;4.03;3.47;;;11.80;57.50;;;;;;5057588;28;20029;-70
2021/06/01 00:31:37;;;;;;;3.88;3.20;;;11.70;57.60;;;;;;5057765;28;20606;-73
2021/06/01 00:34:04;;;;;;;5.63;2.90;;;11.60;57.80;;;;;;5058073;28;20044;-73
2021/06/01 00:36:30;;;;;;;3.67;2.92;;;11.60;58.20;;;;;;5058019;28;20056;-69
2021/06/01 00:38:56;;;;;;;4.63;3.35;;;11.60;58.40;;;;;;5058765;28;20059;-73
2021/06/01 00:41:21;;;;;;;2.95;2.70;;;11.60;58.50;;;;;;5058488;28;20029;-73
2021/06/01 00:43:47;;;;;;;3.63;3.08;;;11.60;58.50;;;;;;5057398;28;20053;-73
2021/06/01 00:46:13;;;;;;;3.88;3.25;;;11.60;58.70;;;;;;5056824;28;20052;-72
2021/06/01 00:48:39;;;;;;;3.13;2.83;;;11.70;58.80;;;;;;5055581;28;20029;-72
2021/06/01 00:51:04;;;;;;;3.35;2.90;;;11.70;58.90;;;;;;5058973;28;20157;-73
2021/06/01 00:53:30;;;;;;;3.15;2.85;;;11.70;58.90;;;;;;5058116;28;20028;-72
2021/06/01 00:55:56;;;;;;;6.70;3.10;;;11.70;58.90;;;;;;5057952;28;20505;-73
2021/06/01 00:58:24;;;;;;;5.88;2.80;;;11.70;58.90;;;;;;5057399;28;20032;-73
2021/06/01 01:01:09;;;;;;;3.50;3.20;;;11.70;59.10;;;;;;5057537;28;20016;-73
2021/06/01 01:03:36;;;;;;;3.30;2.97;;;11.60;59.00;;;;;;5057590;28;20758;-73
2021/06/01 01:06:07;;;;;;;3.15;2.85;;;11.70;59.10;;;;;;5056344;28;20059;-72
2021/06/01 01:08:48;;;;;;;3.90;3.20;;;11.60;59.30;;;;;;5058419;28;20036;-71
2021/06/01 01:11:19;;;;;;;3.78;2.97;;;11.60;59.30;;;;;;5056572;28;20029;-71
2021/06/01 01:14:24;;;;;;;4.32;3.13;;;11.60;59.50;;;;;;5055663;28;20043;-71
2021/06/01 01:16:58;;;;;;;3.25;2.80;;;11.50;59.50;;;;;;4976269;28;20117;-71
2021/06/01 01:20:01;;;;;;;3.28;2.88;;;11.60;59.50;;;;;;5046777;28;20127;-71
2021/06/01 01:22:27;;;;;;;4.65;3.17;;;11.60;59.80;;;;;;5056978;28;20488;-71
2021/06/01 01:25:21;;;;;;;3.50;3.03;;;11.50;59.30;;;;;;5055340;28;20037;-71
2021/06/01 01:27:52;;;;;;;3.60;3.08;;;11.40;59.70;;;;;;5058152;28;20040;-71
2021/06/01 01:30:19;;;;;;;3.25;2.95;;;11.40;59.70;;;;;;5057619;28;20101;-71
2021/06/01 01:33:01;;;;;;;3.22;2.92;;;11.30;60.20;;;;;;5060395;28;20111;-71
2021/06/01 01:35:29;;;;;;;3.20;2.90;;;11.30;60.20;;;;;;5060160;28;20025;-71
2021/06/01 01:38:00;;;;;;;3.67;3.38;;;11.30;60.00;;;;;;5060656;28;20500;-71
2021/06/01 01:40:31;;;;;;;3.20;2.90;;;11.20;60.10;;;;;;5061969;28;20028;-71
2021/06/01 01:43:03;;;;;;;3.40;2.92;;;11.20;60.20;;;;;;5061112;28;20041;-71
2021/06/01 01:45:34;;;;;;;3.55;3.13;;;11.10;60.30;;;;;;5057331;28;20469;-70
2021/06/01 01:51:11;;;;;;;3.15;2.90;;;11.10;60.60;;;;;;5060746;28;20048;-71
2021/06/01 01:53:39;;;;;;;3.30;3.00;;;11.10;60.50;;;;;;5062969;28;20207;-71
2021/06/01 01:56:04;;;;;;;3.15;2.85;;;11.10;60.40;;;;;;5058936;28;20056;-71
2021/06/01 01:58:32;;;;;;;4.13;3.10;;;11.10;60.60;;;;;;5059896;28;20056;-71
2021/06/01 02:00:59;;;;;;;3.42;3.13;;;11.00;60.70;;;;;;5061492;28;20047;-71
2021/06/01 02:03:25;;;;;;;3.65;2.95;;;11.00;60.90;;;;;;5061448;28;20033;-71
2021/06/01 02:05:52;;;;;;;3.17;2.88;;;11.00;60.90;;;;;;5060652;28;20031;-71
2021/06/01 02:08:17;;;;;;;3.60;2.97;;;10.90;61.00;;;;;;5061553;28;20052;-71
2021/06/01 02:10:43;;;;;;;2.92;2.72;;;10.80;61.00;;;;;;5059441;28;20452;-71
2021/06/01 02:13:08;;;;;;;3.42;3.13;;;10.80;61.30;;;;;;5059755;28;20141;-71
2021/06/01 02:15:34;;;;;;;3.38;3.05;;;10.80;61.40;;;;;;5072622;22;20052;-69
2021/06/01 02:17:59;;;;;;;3.92;3.28;;;10.80;61.50;;;;;;5063031;28;20028;-68
2021/06/01 02:20:25;;;;;;;3.63;3.13;;;10.80;61.50;;;;;;5061367;28;20115;-68
2021/06/01 02:25:26;;;;;;;;;;;10.70;61.80;;;;;;5059369;28;20337;-70
2021/06/01 02:28:01;;;;;;;6.80;4.00;;;10.70;61.20;;;;;;5062116;28;19908;-69
2021/06/01 02:30:41;;;;;;;6.07;3.90;;;10.60;61.60;;;;;;5066790;28;20344;-68
2021/06/01 02:33:07;;;;;;;4.00;3.53;;;10.60;61.80;;;;;;5061305;28;20112;-68
2021/06/01 02:35:38;;;;;;;4.25;3.55;;;10.60;61.70;;;;;;5060001;28;20139;-69
2021/06/01 02:38:06;;;;;;;4.07;3.67;;;10.50;62.00;;;;;;5061793;28;20068;-70
2021/06/01 02:40:34;;;;;;;4.50;3.95;;;10.50;61.90;;;;;;5060802;28;20162;-70
2021/06/01 02:43:09;;;;;;;4.13;3.63;;;10.50;62.30;;;;;;5061297;28;20037;-67
2021/06/01 02:45:37;;;;;;;4.75;3.90;;;10.40;62.50;;;;;;5058785;28;20029;-68
2021/06/01 02:48:06;;;;;;;4.10;3.47;;;10.40;62.50;;;;;;5060326;28;20020;-69
2021/06/01 02:50:32;;;;;;;3.85;3.40;;;10.40;62.60;;;;;;5060854;28;20025;-68
2021/06/01 02:52:59;;;;;;;6.55;3.80;;;10.40;62.60;;;;;;5041439;28;20025;-68
2021/06/01 02:55:26;;;;;;;7.35;4.82;;;10.40;62.80;;;;;;5060407;28;20025;-69
2021/06/01 02:57:52;;;;;;;4.70;3.63;;;10.40;62.80;;;;;;5042802;28;20021;-69
2021/06/01 03:00:22;;;;;;;5.55;4.20;;;10.40;63.00;;;;;;5061198;28;20079;-68
2021/06/01 03:02:48;;;;;;;5.18;4.00;;;10.30;62.90;;;;;;5060007;28;20430;-69
2021/06/01 03:05:14;;;;;;;5.07;3.90;;;10.30;62.70;;;;;;5041471;28;20116;-69
2021/06/01 03:07:44;;;;;;;5.63;3.47;;;10.30;62.90;;;;;;5059564;28;20017;-69
2021/06/01 03:10:12;;;;;;;3.85;3.45;;;10.20;63.10;;;;;;5059757;28;20025;-69
2021/06/01 03:15:08;;;;;;;6.25;3.75;;;10.20;63.20;;;;;;5059892;28;20040;-70
2021/06/01 03:17:34;;;;;;;3.92;3.35;;;10.20;63.30;;;;;;5060736;28;20453;-69
2021/06/01 03:20:00;;;;;;;5.32;3.72;;;10.10;63.40;;;;;;5042944;28;20115;-68
2021/06/01 03:22:25;;;;;;;5.43;3.33;;;10.10;63.30;;;;;;5060028;28;20025;-70
2021/06/01 03:24:51;;;;;;;3.55;3.25;;;10.10;63.30;;;;;;5059754;28;20550;-67
2021/06/01 03:27:17;;;;;;;4.15;3.60;;;10.00;63.40;;;;;;5043459;28;20039;-67
2021/06/01 03:29:42;;;;;;;6.55;3.85;;;10.00;63.50;;;;;;5041434;28;20109;-68
2021/06/01 03:32:08;;;;;;;4.80;3.40;;;10.00;63.50;;;;;;5058990;28;20059;-68
2021/06/01 03:34:34;;;;;;;4.57;3.33;;;10.00;63.60;;;;;;5058492;28;20395;-67
2021/06/01 03:36:59;;;;;;;6.90;3.70;;;9.90;63.50;;;;;;5059172;28;20020;-67
2021/06/01 03:39:27;;;;;;;4.10;3.63;;;9.80;63.60;;;;;;5059493;28;20036;-67
2021/06/01 03:41:53;;;;;;;4.03;3.55;;;9.90;63.90;;;;;;5041616;28;20033;-67
2021/06/01 03:44:18;;;;;;;4.00;3.47;;;9.80;63.90;;;;;;5059722;28;20515;-68
2021/06/01 03:46:44;;;;;;;4.50;3.78;;;9.90;64.10;;;;;;5041223;28;20035;-70
2021/06/01 03:49:09;;;;;;;3.85;3.45;;;9.80;64.00;;;;;;5060518;28;20087;-67
2021/06/01 03:51:35;;;;;;;4.20;3.80;;;9.80;63.90;;;;;;5059790;28;20025;-68
2021/06/01 03:54:01;;;;;;;3.92;3.45;;;9.80;64.00;;;;;;5040952;28;20028;-68
2021/06/01 03:56:27;;;;;;;4.30;3.90;;;9.70;64.60;;;;;;5060039;28;20025;-68
2021/06/01 03:58:53;;;;;;;4.70;3.83;;;9.70;64.30;;;;;;5061129;28;20054;-70
2021/06/01 04:01:18;;;;;;;3.53;3.22;;;9.60;64.40;;;;;;5041998;28;20489;-67
2021/06/01 04:03:44;;;;;;;4.53;3.72;;;9.60;64.50;;;;;;5040509;28;20023;-67
2021/06/01 04:06:13;;;;;;;5.90;3.90;;;9.60;64.60;;;;;;5040008;28;20376;-67
2021/06/01 04:08:40;;;;;;;6.15;4.03;;;9.60;64.80;;;;;;5057268;28;20101;-68
2021/06/01 04:11:06;;;;;;;5.13;4.30;;;9.60;64.60;;;;;;5041859;28;20021;-67
2021/06/01 04:13:32;;;;;;;7.25;4.50;;;9.50;64.70;;;;;;5040620;28;20028;-67
2021/06/01 04:15:58;;;;;;;5.82;4.40;;;9.50;64.90;;;;;;5058164;28;20029;-69
2021/06/01 04:18:23;;;;;;;6.20;4.65;;;9.50;65.00;;;;;;5059387;28;20029;-68
2021/06/01 04:20:49;;;;;;;5.65;4.35;;;9.50;65.20;;;;;;5060571;28;20100;-70
2021/06/01 04:23:15;;;;;;;5.22;4.70;;;9.50;65.20;;;;;;5060038;28;20054;-67
2021/06/01 04:25:41;;;;;;;6.50;5.20;;;9.40;65.20;;;;;;5059029;28;20029;-67
2021/06/01 04:28:07;;;;;;;7.55;4.60;;;9.50;65.60;;;;;;5061518;28;20051;-67
2021/06/01 04:30:33;;;;;;;8.13;5.50;;;9.50;65.70;;;;;;5060103;28;20107;-67
2021/06/01 04:32:58;;;;;;;6.38;5.05;;;9.60;66.00;;;;;;5060100;28;20091;-67
2021/06/01 04:35:25;;;;;;;8.35;5.60;;;9.70;65.90;;;;;;5058293;28;20388;-68
2021/06/01 04:37:51;;;;;;;8.02;5.35;;;9.70;65.70;;;;;;5060762;28;20013;-67
2021/06/01 04:40:17;;;;;;;8.13;5.68;;;9.70;65.70;;;;;;5058877;28;20075;-68
2021/06/01 04:42:43;;;;;;;7.20;5.43;;;9.70;65.80;;;;;;5058463;28;20025;-68
2021/06/01 04:45:09;;;;;;;7.78;6.22;;;9.70;66.10;;;;;;5041424;28;20546;-68
2021/06/01 04:47:35;;;;;;;10.95;6.30;;;9.80;66.40;;;;;;5059318;28;20481;-68
2021/06/01 04:50:01;;;;;;;11.25;5.82;;;9.90;66.40;;;;;;5059072;28;20112;-68
2021/06/01 04:52:27;;;;;;;9.95;6.25;;;10.00;66.40;;;;;;5058879;28;20033;-68
2021/06/01 04:54:53;;;;;;;7.45;5.75;;;10.10;66.60;;;;;;5057808;28;20032;-67
2021/06/01 04:57:18;;;;;;;8.40;5.65;;;10.30;66.60;;;;;;5058589;28;20028;-69
2021/06/01 04:59:44;;;;;;;7.95;6.10;;;10.40;66.60;;;;;;5057916;28;20028;-67
2021/06/01 05:02:10;;;;;;;6.72;5.38;;;10.50;66.50;;;;;;5041870;28;20025;-67
2021/06/01 05:04:35;;;;;;;7.35;5.25;;;10.60;66.50;;;;;;5057330;28;20033;-66
2021/06/01 05:07:01;;;;;;;7.90;5.60;;;10.70;66.50;;;;;;5058612;28;20024;-67
2021/06/01 05:09:27;;;;;;;10.10;5.38;;;10.80;66.40;;;;;;5040244;28;20028;-68
2021/06/01 05:11:53;;;;;;;8.15;5.50;;;10.90;66.40;;;;;;5040341;28;20029;-67
2021/06/01 05:14:19;;;;;;;10.35;5.43;;;11.00;66.40;;;;;;5057331;28;20725;-70
2021/06/01 05:16:45;;;;;;;7.45;4.97;;;11.10;66.30;;;;;;5057523;28;20096;-70
2021/06/01 05:19:10;;;;;;;6.70;4.88;;;11.20;66.20;;;;;;5041224;28;20025;-67
2021/06/01 05:21:36;;;;;;;5.13;4.53;;;11.30;66.20;;;;;;5059664;28;20052;-67
2021/06/01 05:24:02;;;;;;;9.00;4.40;;;11.50;66.20;;;;;;5057598;28;20020;-67
2021/06/01 05:26:27;;;;;;;4.82;3.92;;;11.60;66.30;;;;;;5056502;28;20031;-72
2021/06/01 05:28:53;;;;;;;7.85;3.67;;;11.70;66.10;;;;;;5042878;28;20534;-69
2021/06/01 05:31:26;;;;;;;6.05;4.03;;;11.80;65.90;;;;;;5039572;28;20025;-68
2021/06/01 05:33:54;;;;;;;7.60;4.00;;;12.00;65.90;;;;;;5058041;28;20056;-70
2021/06/01 05:36:20;;;;;;;5.25;4.28;;;12.20;65.80;;;;;;5039939;28;20036;-69
2021/06/01 05:38:46;;;;;;;4.82;3.30;;;12.40;65.50;;;;;;5059059;28;20056;-68
2021/06/01 05:41:12;;;;;;;5.00;4.00;;;12.50;65.40;;;;;;5058269;28;20029;-67
2021/06/01 05:43:38;;;;;;;7.10;3.80;;;12.70;65.30;;;;;;5040770;28;20063;-69
2021/06/01 05:46:04;;;;;;;6.05;4.03;;;12.80;65.20;;;;;;5040084;28;20071;-70
2021/06/01 05:48:30;;;;;;;4.95;3.97;;;13.00;65.00;;;;;;5057724;28;20054;-69
2021/06/01 05:50:57;;;;;;;4.40;3.55;;;13.10;64.90;;;;;;5059870;28;20059;-70
2021/06/01 05:53:24;;;;;;;5.70;4.55;;;13.20;64.80;;;;;;5057585;28;20625;-69
2021/06/01 05:55:51;;;;;;;7.53;4.65;;;13.40;64.70;;;;;;5056126;28;20040;-68
2021/06/01 05:58:17;;;;;;;9.98;4.50;;;13.50;64.10;;;;;;5039353;28;20025;-70
2021/06/01 06:00:43;;;;;;;4.10;3.70;;;13.70;63.80;;;;;;5057772;28;20021;-68
2021/06/01 06:03:09;;;;;;;6.05;3.47;;;13.80;63.60;;;;;;5058736;28;20083;-69
2021/06/01 06:05:34;;;;;;;5.95;3.15;;;14.00;63.30;;;;;;5055136;28;20055;-69
2021/06/01 06:08:18;;;;;;;3.20;2.90;;;14.10;62.90;;;;;;5057320;28;20477;-70
2021/06/01 06:10:45;;;;;;;5.65;3.45;;;14.30;62.80;;;;;;5059707;28;20032;-70
2021/06/01 06:13:11;;;;;;;4.43;3.00;;;14.50;62.60;;;;;;5058241;28;20115;-68
2021/06/01 06:15:38;;;;;;;3.35;2.97;;;14.60;62.20;;;;;;5038723;28;20029;-71
2021/06/01 06:18:06;;;;;;;4.60;3.58;;;14.80;61.80;;;;;;5062458;28;20035;-70
2021/06/01 06:20:34;;;;;;;5.43;3.30;;;14.90;61.50;;;;;;5059990;28;20074;-69
2021/06/01 06:23:00;;;;;;;3.33;3.05;;;15.00;61.40;;;;;;5060853;28;20025;-70
2021/06/01 06:25:26;;;;;;;4.90;3.30;;;15.10;61.30;;;;;;5060012;28;20032;-69
2021/06/01 06:27:52;;;;;;;4.10;3.10;;;15.30;61.00;;;;;;5062765;28;20032;-70
2021/06/01 06:30:18;;;;;;;6.47;3.33;;;15.40;60.50;;;;;;5062136;28;20103;-69
2021/06/01 06:32:45;;;;;;;3.13;2.83;;;15.50;60.40;;;;;;5060910;28;20388;-68
2021/06/01 06:35:11;;;;;;;3.40;3.10;;;15.70;60.00;;;;;;5059963;28;20047;-68
2021/06/01 06:37:37;;;;;;;12.20;3.50;;;15.80;59.90;;;;;;5060061;28;20021;-69
2021/06/01 06:40:05;;;;;;;4.57;3.20;;;15.90;59.60;;;;;;5060415;28;20020;-69
2021/06/01 06:42:33;;;;;;;3.25;2.95;;;16.10;59.60;;;;;;5060756;28;20016;-70
2021/06/01 06:44:58;;;;;;;3.78;3.40;;;16.30;59.60;;;;;;5060024;28;20561;-68
2021/06/01 06:48:08;;;;;;;4.78;3.30;;;16.50;59.30;;;;;;5060915;28;20044;-68
2021/06/01 06:50:15;;;;;;;5.22;3.08;;;16.70;59.10;;;;;;5052779;28;20070;-68
2021/06/01 06:52:41;;;;;;;5.13;2.85;;;16.90;58.80;;;;;;5060726;28;20041;-68
2021/06/01 06:55:10;;;;;;;6.82;2.78;;;17.10;58.50;;;;;;5060382;28;20496;-68
2021/06/01 06:57:36;;;;;;;3.10;2.80;;;17.30;58.00;;;;;;5061727;28;20376;-69
2021/06/01 07:00:05;;;;;;;5.28;3.40;;;17.50;57.90;;;;;;5061305;28;20095;-68
2021/06/01 07:02:31;;;;;;;3.65;3.33;;;17.70;57.40;;;;;;5060183;28;20059;-69
2021/06/01 07:04:56;;;;;;;5.15;3.35;;;17.80;56.70;;;;;;5060103;28;20488;-68
2021/06/01 07:07:22;;;;;;;10.60;3.40;;;17.90;56.50;;;;;;5061378;28;20033;-69
2021/06/01 07:09:47;;;;;;;3.45;2.67;;;18.10;56.50;;;;;;5042675;28;20037;-69
2021/06/01 07:12:13;;;;;;;3.22;2.60;;;18.20;56.30;;;;;;5061425;28;20037;-69
2021/06/01 07:15:25;;;;;;;6.97;3.35;;;18.40;56.10;;;;;;5041406;28;20057;-69
2021/06/01 07:17:59;;;;;;;4.65;3.08;;;18.60;55.40;;;;;;5026156;28;20055;-69
2021/06/01 07:20:30;;;;;;;4.75;2.90;;;18.80;55.40;;;;;;5059910;28;20021;-70
2021/06/01 07:22:56;;;;;;;6.32;2.95;;;18.90;55.20;;;;;;5061470;28;20024;-70
2021/06/01 07:25:21;;;;;;;5.63;2.80;;;19.10;55.10;;;;;;5059591;28;20533;-69
2021/06/01 07:27:47;;;;;;;3.63;2.85;;;19.30;54.50;;;;;;5059417;28;20017;-69
2021/06/01 07:30:13;;;;;;;3.00;2.70;;;19.40;54.30;;;;;;5043062;28;20025;-69
2021/06/01 07:32:39;;;;;;;3.65;2.60;;;19.60;53.80;;;;;;5060171;28;20029;-69
2021/06/01 07:35:05;;;;;;;2.90;2.55;;;19.80;53.50;;;;;;5042280;28;20021;-69
2021/06/01 07:37:30;;;;;;;2.33;2.10;;;20.00;53.10;;;;;;5042347;28;20021;-69
2021/06/01 07:39:56;;;;;;;4.40;2.40;;;20.20;52.90;;;;;;5061041;28;20029;-69
2021/06/01 07:42:23;;;;;;;2.25;2.08;;;20.50;52.40;;;;;;5060923;28;20099;-69
2021/06/01 07:44:48;;;;;;;3.72;2.00;;;20.60;51.80;;;;;;5059792;28;20025;-69
2021/06/01 07:47:14;;;;;;;2.63;2.22;;;20.80;51.40;;;;;;5060513;28;20082;-69
2021/06/01 07:49:39;;;;;;;6.38;2.22;;;21.00;51.00;;;;;;5060277;28;20213;-69
2021/06/01 07:52:05;;;;;;;3.28;2.15;;;21.20;50.60;;;;;;5060288;28;20505;-69
2021/06/01 07:54:32;;;;;;;4.30;1.83;;;21.30;50.60;;;;;;5059986;28;20112;-72
2021/06/01 07:56:58;;;;;;;4.20;1.90;;;21.50;50.30;;;;;;5059502;28;20029;-70
2021/06/01 07:59:24;;;;;;;2.83;1.60;;;21.70;49.90;;;;;;5060759;28;20074;-70
2021/06/01 08:01:49;;;;;;;4.07;1.85;;;22.00;48.70;;;;;;5059921;28;20075;-70
2021/06/01 08:04:15;;;;;;;6.03;1.63;;;22.10;47.90;;;;;;5059125;28;20477;-70
2021/06/01 08:06:41;;;;;;;4.20;1.40;;;22.30;47.00;;;;;;5060117;28;20362;-69
2021/06/01 08:09:08;;;;;;;2.70;1.52;;;22.50;46.80;;;;;;5059802;28;20090;-70
2021/06/01 08:11:34;;;;;;;1.58;1.48;;;22.70;46.00;;;;;;5060180;28;20090;-70
2021/06/01 08:14:00;;;;;;;2.20;1.45;;;23.00;45.40;;;;;;5123773;22;20503;-67
2021/06/01 08:16:26;;;;;;;3.88;1.52;;;23.30;44.90;;;;;;5056124;28;20056;-65
2021/06/01 08:19:10;;;;;;;2.38;1.58;;;23.50;44.30;;;;;;5058050;28;20495;-66
2021/06/01 08:21:51;;;;;;;3.42;1.58;;;23.70;43.80;;;;;;5066236;28;20031;-66
2021/06/01 08:24:16;;;;;;;1.30;1.20;;;23.90;43.20;;;;;;5063799;28;20027;-65
2021/06/01 08:26:42;;;;;;;1.50;1.30;;;24.10;42.70;;;;;;5066722;28;20387;-65
2021/06/01 08:29:08;;;;;;;1.48;1.38;;;24.30;42.10;;;;;;5069029;28;20024;-66
2021/06/01 08:31:35;;;;;;;1.30;1.20;;;24.60;41.40;;;;;;5066196;28;20392;-66
2021/06/01 08:34:00;;;;;;;1.50;1.40;;;24.90;40.50;;;;;;5069218;28;20055;-66
2021/06/01 08:36:27;;;;;;;2.63;1.35;;;25.20;40.20;;;;;;5067811;28;20712;-66
2021/06/01 08:38:53;;;;;;;1.58;1.13;;;25.60;39.60;;;;;;5067755;28;20027;-65
2021/06/01 08:41:19;;;;;;;1.48;1.30;;;25.80;38.20;;;;;;5066185;28;20503;-65
2021/06/01 08:43:47;;;;;;;3.00;1.30;;;26.00;37.50;;;;;;5068828;28;20028;-65
2021/06/01 08:46:13;;;;;;;1.88;1.38;;;26.50;37.30;;;;;;5065234;28;20025;-66
2021/06/01 08:48:39;;;;;;;3.38;1.30;;;26.90;36.50;;;;;;5069007;28;20055;-65
2021/06/01 08:51:06;;;;;;;4.22;1.10;;;27.40;36.10;;;;;;5066357;28;20036;-65
2021/06/01 08:53:33;;;;;;;1.45;1.35;;;27.80;35.00;;;;;;5069198;28;20020;-68
2021/06/01 08:55:59;;;;;;;1.83;1.30;;;28.20;34.90;;;;;;5062673;28;20207;-65
2021/06/01 08:58:25;;;;;;;1.48;1.38;;;28.60;34.10;;;;;;5068852;28;20092;-66
2021/06/01 09:00:51;;;;;;;1.50;1.38;;;28.90;33.20;;;;;;5066061;28;20037;-70
2021/06/01 09:03:23;;;;;;;1.48;1.38;;;29.00;32.80;;;;;;5062206;28;20040;-69
2021/06/01 09:08:52;;;;;;;2.75;1.30;;;29.20;32.30;;;;;;5064524;28;20032;-66
2021/06/01 09:22:44;;;;;;;4.95;1.63;;;30.30;31.50;;;;;;5067480;28;20028;-65
2021/06/01 09:25:15;;;;;;;3.03;1.27;;;30.10;30.80;;;;;;5065559;28;20029;-67
2021/06/01 09:27:45;;;;;;;3.20;1.48;;;30.20;31.40;;;;;;5064582;28;20040;-70
2021/06/01 09:30:30;;;;;;;2.85;1.45;;;30.60;31.20;;;;;;5064026;28;20116;-65
2021/06/01 09:32:56;;;;;;;2.22;1.05;;;30.80;30.80;;;;;;5065034;28;20053;-66
2021/06/01 09:35:21;;;;;;;1.40;1.20;;;30.90;30.70;;;;;;5066042;28;20484;-69
2021/06/01 09:37:47;;;;;;;2.53;1.40;;;31.10;30.70;;;;;;5062494;28;20090;-66
2021/06/01 09:40:18;;;;;;;2.10;1.30;;;31.30;30.20;;;;;;5066500;28;20053;-65
2021/06/01 09:42:47;;;;;;;3.55;1.08;;;31.50;30.10;;;;;;5067581;28;20100;-70
2021/06/01 09:45:17;;;;;;;5.18;1.35;;;31.50;30.30;;;;;;5063280;28;20029;-66
2021/06/01 09:47:50;;;;;;;3.60;1.48;;;31.50;30.30;;;;;;5062844;28;20040;-66
2021/06/01 09:52:50;;;;;;;1.27;1.00;;;31.20;30.50;;;;;;5065311;28;20032;-66
2021/06/01 09:55:24;;;;;;;3.75;1.67;;;31.00;30.20;;;;;;5068180;28;20035;-72
2021/06/01 09:57:50;;;;;;;2.13;1.20;;;30.90;30.40;;;;;;5071024;28;20020;-66
2021/06/01 10:00:18;;;;;;;1.27;1.10;;;30.60;30.50;;;;;;5069516;28;20074;-66
2021/06/01 10:03:05;;;;;;;3.25;1.30;;;30.40;30.70;;;;;;5067117;28;20039;-65
2021/06/01 10:05:33;;;;;;;3.45;1.20;;;30.10;30.80;;;;;;5066258;28;20047;-66
2021/06/01 10:08:14;;;;;;;2.20;1.10;;;30.00;31.20;;;;;;5069298;28;20025;-66
2021/06/01 10:10:41;;;;;;;2.42;1.25;;;29.70;31.60;;;;;;5069534;28;20028;-66
2021/06/01 10:13:08;;;;;;;1.42;1.20;;;29.60;32.00;;;;;;5062205;28;20345;-66
2021/06/01 10:15:37;;;;;;;3.42;1.40;;;29.30;31.60;;;;;;5069025;28;20020;-66
2021/06/01 10:18:04;;;;;;;1.50;1.30;;;29.00;31.60;;;;;;5069382;28;20478;-65
2021/06/01 10:20:33;;;;;;;1.17;1.17;;;28.70;31.40;;;;;;5067851;28;20025;-65
2021/06/01 10:23:00;;;;;;;4.97;1.30;;;28.50;32.30;;;;;;5070592;28;20468;-65
2021/06/01 10:25:25;;;;;;;3.40;1.40;;;28.30;32.10;;;;;;5069225;28;20040;-66
2021/06/01 10:27:52;;;;;;;1.60;1.15;;;28.20;32.40;;;;;;5067085;28;20034;-71
2021/06/01 10:30:18;;;;;;;2.72;1.25;;;28.20;32.40;;;;;;5069139;28;20024;-65
2021/06/01 10:32:51;;;;;;;2.03;1.30;;;28.00;32.20;;;;;;5067738;28;20036;-67
2021/06/01 10:35:19;;;;;;;4.72;1.45;;;27.70;32.20;;;;;;5070749;28;20055;-65
2021/06/01 10:49:59;;;;;;;;;;;26.40;32.80;;;;;;5064464;28;20044;-64
2021/06/01 10:52:11;;;;;;;1.50;1.40;;;26.30;34.10;;;;;;5068998;28;20007;-63
2021/06/01 10:54:39;;;;;;;5.28;1.67;;;25.90;33.20;;;;;;5068621;28;20016;-65
2021/06/01 10:57:06;;;;;;;3.30;1.15;;;25.70;33.20;;;;;;5067385;28;20027;-65
2021/06/01 11:01:50;;;;;;;3.25;1.20;;;25.60;33.90;;;;;;5070463;28;20028;-64
2021/06/01 11:02:35;;;;;;;1.20;1.13;;;25.70;33.50;;;;;;5068320;28;20032;-64
2021/06/01 11:05:12;;;;;;;2.28;1.20;;;25.70;34.00;;;;;;5063919;28;20403;-69
2021/06/01 11:07:54;;;;;;;1.98;1.02;;;25.70;33.40;;;;;;5068356;28;20032;-64
2021/06/01 11:10:43;;;;;;;1.52;1.30;;;25.60;33.40;;;;;;5067397;28;20067;-66
2021/06/01 11:13:29;;;;;;;4.25;1.27;;;25.50;33.20;;;;;;5069766;28;20017;-63
2021/06/01 11:16:00;;;;;;;1.67;1.20;;;25.40;33.70;;;;;;5059362;28;20462;-64
2021/06/01 11:19:14;;;;;;;1.98;1.30;;;25.40;34.00;;;;;;5067698;28;20036;-65
2021/06/01 11:21:40;;;;;;;1.70;1.33;;;25.40;33.80;;;;;;5061954;28;20035;-63
2021/06/01 11:35:13;;;;;;;1.60;1.50;;;25.10;34.10;;;;;;5068692;28;20381;-64
2021/06/01 11:37:55;;;;;;;1.95;1.50;;;25.10;34.30;;;;;;5068662;28;20024;-63
2021/06/01 11:43:18;;;;;;;2.83;1.30;;;25.00;34.50;;;;;;5068851;28;20094;-66
2021/06/01 11:45:56;;;;;;;3.85;1.48;;;25.00;34.50;;;;;;5063056;28;20050;-64
2021/06/01 11:51:27;;;;;;;2.95;1.35;;;25.10;34.40;;;;;;5075324;28;20090;-64
2021/06/01 11:53:56;;;;;;;;;;;25.20;34.50;;;;;;5059786;28;20385;-64
2021/06/01 12:13:31;;;;;;;3.50;1.63;;;24.70;34.60;;;;;;5069109;28;20050;-68
2021/06/01 12:18:46;;;;;;;2.65;1.38;;;24.80;35.00;;;;;;5068317;28;20043;-70
2021/06/01 12:21:22;;;;;;;1.55;1.38;;;24.80;34.90;;;;;;5068016;28;20038;-66
2021/06/01 12:23:54;;;;;;;1.30;1.20;;;24.70;34.90;;;;;;5068489;28;20021;-66
2021/06/01 12:32:02;;;;;;;1.58;1.23;;;24.70;34.90;;;;;;5065541;28;20051;-66
2021/06/01 12:43:19;;;;;;;2.10;1.10;;;24.70;35.00;;;;;;5066705;28;20079;-65
2021/06/01 12:46:06;;;;;;;2.13;1.40;;;24.60;35.10;;;;;;5064571;28;20024;-64
2021/06/01 13:20:39;;;;;;;1.55;1.30;;;24.00;35.90;;;;;;5068943;28;20078;-64
2021/06/01 13:36:56;;;;;;;4.38;1.30;;;23.60;35.40;;;;;;5063977;28;20028;-65
2021/06/01 13:47:21;;;;;;;5.07;1.08;;;23.60;35.30;;;;;;5065591;28;20043;-64
2021/06/01 13:49:55;;;;;;;2.40;1.40;;;23.60;35.50;;;;;;5067199;28;20025;-64
2021/06/01 14:29:57;;;;;;;3.70;1.35;;;23.50;36.00;;;;;;5094246;28;20150;-92
2021/06/01 15:08:35;;;;;;;2.08;1.73;;;23.30;36.50;;;;;;5079750;28;20507;-69
2021/06/01 15:41:23;;;;;;;1.50;1.40;;;23.00;36.20;;;;;;5077680;28;20154;-68
2021/06/01 15:55:09;;;;;;;1.52;1.30;;;23.00;35.70;;;;;;5077338;28;20077;-68
2021/06/01 17:03:34;;;;;;;2.00;1.30;;;22.60;37.40;;;;;;5078112;28;20046;-68
2021/06/01 17:06:07;;;;;;;2.38;1.30;;;22.60;37.60;;;;;;5075341;28;20048;-66
2021/06/01 17:11:13;;;;;;;5.25;1.40;;;22.60;37.70;;;;;;5071329;28;20036;-67
2021/06/01 17:13:50;;;;;;;1.73;1.50;;;22.60;37.60;;;;;;5072937;28;20032;-67
2021/06/01 17:16:35;;;;;;;3.05;1.40;;;22.50;37.70;;;;;;5072125;28;20427;-67
2021/06/01 17:30:25;;;;;;;3.47;1.70;;;22.50;37.70;;;;;;5073774;28;20031;-67
2021/06/01 17:35:13;;;;;;;4.55;1.38;;;22.40;38.00;;;;;;5071395;28;20082;-67
2021/06/01 17:37:39;;;;;;;1.60;1.48;;;22.40;38.20;;;;;;5073220;28;20020;-67
2021/06/01 17:40:08;;;;;;;1.85;1.15;;;22.40;38.30;;;;;;5072567;28;20033;-68
2021/06/01 17:42:35;;;;;;;1.95;1.40;;;22.30;38.20;;;;;;5074218;28;20028;-68
2021/06/01 17:45:04;;;;;;;2.30;1.30;;;22.30;38.10;;;;;;5070927;28;20170;-69
2021/06/01 17:47:35;;;;;;;1.42;1.25;;;22.30;38.00;;;;;;5070427;28;20095;-69
2021/06/01 17:50:03;;;;;;;2.88;1.40;;;22.30;37.80;;;;;;5071972;28;20035;-70
2021/06/01 17:52:32;;;;;;;5.15;1.20;;;22.20;37.80;;;;;;5074006;28;20477;-69
2021/06/01 17:55:00;;;;;;;1.52;1.20;;;22.20;37.80;;;;;;5071409;28;20037;-69
2021/06/01 17:57:27;;;;;;;3.70;1.20;;;22.10;37.90;;;;;;5073397;28;20061;-68
2021/06/01 17:59:55;;;;;;;2.47;1.38;;;22.10;38.10;;;;;;5072785;28;20027;-68
2021/06/01 18:02:21;;;;;;;1.10;1.00;;;22.10;38.20;;;;;;5072495;28;20035;-71
2021/06/01 18:04:50;;;;;;;2.05;1.10;;;22.00;38.30;;;;;;5074275;28;20040;-71
2021/06/01 18:07:25;;;;;;;2.30;1.30;;;22.00;38.20;;;;;;5075871;28;20098;-73
2021/06/01 19:50:27;;;;;;;2.20;1.40;;;19.70;41.50;;;;;;5055011;28;20039;-68
2021/06/01 19:52:55;;;;;;;1.38;1.25;;;19.60;41.90;;;;;;5063188;28;20105;-68
2021/06/01 19:55:24;;;;;;;4.30;1.33;;;19.60;42.10;;;;;;5066048;28;20363;-67
2021/06/01 19:57:50;;;;;;;1.40;1.13;;;19.50;42.20;;;;;;5070196;28;20048;-66
2021/06/01 20:00:17;;;;;;;4.82;1.20;;;19.50;42.40;;;;;;5068578;28;20039;-67
2021/06/01 20:02:43;;;;;;;2.05;1.30;;;19.40;42.50;;;;;;5070598;28;20082;-67
2021/06/01 20:05:15;;;;;;;4.80;1.25;;;19.30;42.60;;;;;;5060317;28;20041;-67
2021/06/01 20:07:41;;;;;;;3.25;1.40;;;19.20;42.90;;;;;;5062934;28;20115;-70
2021/06/01 20:10:10;;;;;;;1.85;1.20;;;19.10;42.80;;;;;;5069545;28;20123;-70
2021/06/01 20:12:36;;;;;;;2.03;1.45;;;19.00;43.10;;;;;;5069871;28;20021;-69
2021/06/01 20:17:39;;;;;;;2.40;1.30;;;18.90;43.60;;;;;;5021414;28;20049;-73